• Join FlightAware (Why Join?)
  • Login
  • US Flag 
05:32PM EDT


 

Airport Tracker/Info


-or-


 

Live Flight TrackerFlight Track Log ✈ N1526M ✈ 11-Oct-2013 ✈ KFCM - KASX

Flight Track Log - Related Links

Times and Time Zones

All times are in EDT time to prevent confusion due to time zone crossing. See the N1526M flight status page for this flight to view local times or setup timezone preferences in your user account.

Time Position Orientation Groundspeed Altitude Reporting Facility
EDT Latitude Longitude Course Direction KTS MPH feet Rate Location/Type
11:14AM 44.7833 -93.4667 46° Northeast 119 137 3,300  Level Minneapolis TRACON
11:15AM 44.8000 -93.4333 55° Northeast 175 201 4,000 420 Climbing Minneapolis TRACON
11:16AM 44.8333 -93.3833 47° Northeast 198 228 4,200 360 Climbing Minneapolis TRACON
11:18AM 44.8908 -93.3214 37° Northeast 179 206 5,000 300 Climbing Minneapolis Center
11:19AM 44.9400 -93.2483 46° Northeast 213 245 5,000  Level Minneapolis Center
11:20AM 45.0564 -93.1252 46° Northeast  Level FlightAware Approximate
11:20AM 44.9853 -93.1881 43° Northeast 221 254 5,000  Level Minneapolis Center
11:21AM 45.0300 -93.1303 42° Northeast 219 252 4,900 -60 Descending Minneapolis Center
11:22AM 45.0736 -93.0697 44° Northeast 219 252 4,900  Level Minneapolis Center
11:23AM 45.1181 -93.0108 43° Northeast 218 251 5,000 60 Climbing Minneapolis Center
11:24AM 45.1597 -92.9500 46° Northeast 216 249 5,100 600 Climbing Minneapolis Center
11:25AM 45.1969 -92.8997 44° Northeast 185 213 6,300 900 Climbing Minneapolis Center
11:26AM 45.2367 -92.8386 47° Northeast 177 204 7,000 300 Climbing Minneapolis Center
11:27AM 45.2756 -92.7797 47° Northeast 205 236 7,000  Level Minneapolis Center
11:28AM 45.3197 -92.7206 43° Northeast 216 249 7,000 -60 Level Minneapolis Center
11:29AM 45.3617 -92.6583 46° Northeast 217 250 6,900  Descending Minneapolis Center
11:30AM 45.4061 -92.5983 43° Northeast 219 252 7,000  Climbing Minneapolis Center
11:31AM 45.4497 -92.5369 45° Northeast 221 254 6,900 -60 Descending Minneapolis Center
11:32AM 45.5008 -92.4628 45° Northeast 220 253 6,900  Level Minneapolis Center
11:33AM 45.5433 -92.4006 46° Northeast 220 253 6,900 60 Level Minneapolis Center
11:34AM 45.5875 -92.3383 45° Northeast 223 257 7,100  Climbing Minneapolis Center
11:35AM 45.6289 -92.2744 47° Northeast 220 253 7,000  Descending Minneapolis Center
11:36AM 45.6689 -92.2128 47° Northeast 216 249 7,100  Climbing Minneapolis Center
11:37AM 45.7131 -92.1539 43° Northeast 216 249 7,100  Level Minneapolis Center
11:38AM 45.7642 -92.0783 46° Northeast 219 252 7,100 -120 Level Minneapolis Center
11:39AM 45.8097 -92.0169 43° Northeast 223 257 6,900 -120 Descending Minneapolis Center
11:41AM 45.8531 -91.9514 46° Northeast 225 259 6,900  Level Minneapolis Center
11:42AM 45.8942 -91.8872 47° Northeast 223 257 6,900  Level Minneapolis Center
11:43AM 45.9358 -91.8244 46° Northeast 220 253 6,900  Level Minneapolis Center
11:44AM 45.9778 -91.7611 46° Northeast 219 252 6,900  Level Minneapolis Center
11:45AM 46.0286 -91.6858 46° Northeast 219 252 6,900  Level Minneapolis Center
11:46AM 46.0658 -91.6314 45° Northeast 220 253 6,900  Level Minneapolis Center
11:47AM 46.1189 -91.5597 43° Northeast 219 252 6,900  Level Minneapolis Center
11:48AM 46.1639 -91.4978 44° Northeast 220 253 6,900  Level Minneapolis Center
11:49AM 46.2011 -91.4361 49° Northeast 219 252 6,900  Level Minneapolis Center
11:51AM 46.2649 -91.3361 47° Northeast  Level FlightAware Approximate
11:58AM 46.5238 -90.9262 35° Northeast  Level FlightAware Approximate
11:59AM 46.5333 -90.9167 35° Northeast  Level FlightAware Approximate
12:00PM 46.5485 -90.9190 35° Northeast  Level Estimated
12:01PM 46.5485 -90.9190 35° Northeast  Level Estimated
12:02PM 46.5485 -90.9190 35° Northeast  Level Estimated
12:03PM 46.5485 -90.9190 35° Northeast  Level Estimated
12:04PM 46.5485 -90.9190 35° Northeast  Level Estimated
12:05PM 46.5485 -90.9190 35° Northeast  Level Estimated